createdAt,value
2019-03-18T00:00:46.285Z,1.60
2019-03-18T00:01:46.296Z,2.00
2019-03-18T00:02:46.313Z,1.80
2019-03-18T00:03:46.323Z,1.80
2019-03-18T00:04:46.335Z,1.60
2019-03-18T00:05:46.348Z,1.70
2019-03-18T00:06:46.359Z,1.90
2019-03-18T00:07:46.374Z,2.00
2019-03-18T00:08:46.388Z,1.80
2019-03-18T00:09:46.396Z,1.80
2019-03-18T00:10:46.408Z,1.50
2019-03-18T00:11:46.422Z,1.70
2019-03-18T00:12:46.441Z,1.80
2019-03-18T00:13:46.447Z,2.00
2019-03-18T00:14:46.458Z,1.70
2019-03-18T00:15:46.471Z,1.80
2019-03-18T00:16:46.482Z,1.90
2019-03-18T00:17:46.496Z,2.00
2019-03-18T00:18:46.510Z,1.90
2019-03-18T00:19:46.523Z,2.30
2019-03-18T00:20:46.535Z,1.90
2019-03-18T00:21:46.545Z,1.90
2019-03-18T00:22:46.558Z,2.00
2019-03-18T00:23:46.571Z,2.00
2019-03-18T00:24:46.585Z,1.90
2019-03-18T00:25:46.594Z,1.90
2019-03-18T00:26:46.607Z,2.10
2019-03-18T00:27:46.620Z,1.90
2019-03-18T00:28:46.633Z,2.00
2019-03-18T00:29:46.643Z,2.50
2019-03-18T00:30:46.657Z,2.10
2019-03-18T00:31:46.668Z,2.10
2019-03-18T00:32:46.683Z,1.90
2019-03-18T00:33:46.694Z,2.10
2019-03-18T00:34:46.705Z,2.10
2019-03-18T00:35:46.719Z,1.90
2019-03-18T00:36:46.731Z,2.20
2019-03-18T00:37:46.744Z,2.20
2019-03-18T00:38:46.756Z,2.10
2019-03-18T00:39:46.768Z,2.00
2019-03-18T00:40:46.798Z,2.20
2019-03-18T00:41:46.796Z,1.90
2019-03-18T00:42:46.806Z,2.30
2019-03-18T00:43:46.819Z,2.20
2019-03-18T00:44:46.833Z,2.30
2019-03-18T00:45:46.840Z,2.40
2019-03-18T00:46:46.853Z,2.20
2019-03-18T00:47:46.870Z,2.10
2019-03-18T00:48:46.879Z,2.40
2019-03-18T00:49:46.890Z,2.30
2019-03-18T00:50:46.904Z,2.30
2019-03-18T00:51:46.916Z,2.50
2019-03-18T00:52:46.928Z,2.40
2019-03-18T00:53:46.943Z,2.40
2019-03-18T00:54:46.954Z,2.60
2019-03-18T00:55:47.005Z,2.30
2019-03-18T00:56:46.990Z,2.70
2019-03-18T00:57:46.991Z,2.40
2019-03-18T00:58:47.004Z,2.30
2019-03-18T00:59:47.017Z,2.30
2019-03-18T01:00:47.027Z,2.30
2019-03-18T01:01:47.049Z,2.40
2019-03-18T01:02:49.284Z,2.30
2019-03-18T01:03:47.066Z,2.30
2019-03-18T01:04:47.077Z,2.60
2019-03-18T01:05:47.089Z,2.40
2019-03-18T01:06:47.102Z,2.30
2019-03-18T01:07:47.113Z,2.40
2019-03-18T01:08:47.138Z,2.30
2019-03-18T01:09:47.157Z,2.60
2019-03-18T01:10:47.227Z,2.50
2019-03-18T01:11:47.221Z,2.40
2019-03-18T01:12:47.240Z,2.20
2019-03-18T01:13:47.229Z,2.80
2019-03-18T01:14:47.288Z,2.70
2019-03-18T01:15:47.281Z,2.60
2019-03-18T01:16:47.294Z,2.90
2019-03-18T01:17:47.294Z,2.60
2019-03-18T01:18:47.301Z,2.80
2019-03-18T01:19:47.291Z,3.20
2019-03-18T01:20:47.279Z,2.70
2019-03-18T01:21:47.283Z,2.60
2019-03-18T01:22:47.299Z,2.80
2019-03-18T01:23:47.316Z,3.10
2019-03-18T01:24:47.321Z,3.10
2019-03-18T01:25:47.334Z,3.10
2019-03-18T01:26:47.352Z,3.10
2019-03-18T01:27:47.360Z,2.90
2019-03-18T01:28:47.372Z,3.00
2019-03-18T01:29:47.384Z,2.90
2019-03-18T01:30:47.394Z,2.80
2019-03-18T01:31:47.406Z,2.90
2019-03-18T01:32:47.418Z,3.30
2019-03-18T01:33:47.429Z,3.10
2019-03-18T01:34:47.444Z,4.20
2019-03-18T01:35:47.455Z,3.20
2019-03-18T01:36:47.465Z,3.00
2019-03-18T01:37:47.523Z,3.30
2019-03-18T01:38:47.492Z,3.20
2019-03-18T01:39:47.506Z,3.10
2019-03-18T01:40:47.516Z,3.40
2019-03-18T01:41:47.526Z,3.70
2019-03-18T01:42:47.540Z,3.20
2019-03-18T01:43:47.554Z,3.20
2019-03-18T01:44:47.565Z,3.50
2019-03-18T01:45:47.574Z,3.40
2019-03-18T01:46:47.587Z,3.80
2019-03-18T01:47:47.598Z,3.60
2019-03-18T01:48:47.610Z,3.30
2019-03-18T01:49:47.622Z,3.40
2019-03-18T01:50:47.633Z,4.00
2019-03-18T01:51:47.645Z,3.80
2019-03-18T01:52:47.662Z,4.00
2019-03-18T01:53:47.672Z,3.60
2019-03-18T01:54:47.682Z,3.40
2019-03-18T01:55:47.695Z,3.60
2019-03-18T01:56:47.708Z,3.60
2019-03-18T01:57:47.717Z,3.50
2019-03-18T01:58:47.728Z,3.30
2019-03-18T01:59:47.742Z,3.60
2019-03-18T02:00:47.759Z,3.60
2019-03-18T02:01:47.763Z,3.40
2019-03-18T02:02:47.775Z,3.60
2019-03-18T02:03:47.790Z,3.90
2019-03-18T02:04:47.801Z,3.50
2019-03-18T02:05:47.813Z,3.40
2019-03-18T02:06:47.825Z,3.50
2019-03-18T02:07:47.836Z,3.40
2019-03-18T02:08:47.849Z,4.10
2019-03-18T02:09:47.860Z,3.20
2019-03-18T02:10:47.872Z,3.60
2019-03-18T02:11:47.884Z,3.20
2019-03-18T02:12:47.895Z,3.40
2019-03-18T02:13:47.909Z,3.20
2019-03-18T02:14:47.919Z,3.40
2019-03-18T02:15:53.261Z,3.40
2019-03-18T02:16:47.940Z,3.30
2019-03-18T02:17:47.952Z,3.40
2019-03-18T02:18:47.966Z,3.50
2019-03-18T02:19:47.975Z,3.60
2019-03-18T02:20:47.991Z,3.40
2019-03-18T02:21:47.998Z,3.80
2019-03-18T02:22:48.010Z,3.40
2019-03-18T02:23:48.024Z,3.50
2019-03-18T02:24:48.037Z,3.40
2019-03-18T02:25:48.045Z,3.50
2019-03-18T02:26:48.058Z,3.40
2019-03-18T02:27:48.078Z,3.30
2019-03-18T02:28:48.094Z,3.30
2019-03-18T02:29:48.093Z,3.40
2019-03-18T02:30:48.111Z,3.50
2019-03-18T02:31:48.117Z,3.50
2019-03-18T02:32:48.175Z,3.80
2019-03-18T02:33:48.140Z,3.30
2019-03-18T02:34:48.156Z,3.60
2019-03-18T02:35:48.165Z,4.00
2019-03-18T02:36:48.192Z,3.60
2019-03-18T02:37:48.188Z,4.00
2019-03-18T02:38:48.198Z,3.60
2019-03-18T02:39:48.218Z,3.50
2019-03-18T02:40:48.222Z,3.30
2019-03-18T02:41:48.240Z,3.50
2019-03-18T02:42:48.249Z,3.50
2019-03-18T02:43:48.257Z,3.40
2019-03-18T02:44:48.270Z,3.30
2019-03-18T02:45:48.281Z,3.40
2019-03-18T02:46:48.291Z,4.00
2019-03-18T02:47:48.308Z,3.50
2019-03-18T02:48:48.314Z,3.50
2019-03-18T02:49:48.326Z,3.50
2019-03-18T02:50:48.340Z,3.40
2019-03-18T02:51:48.350Z,3.90
2019-03-18T02:52:48.368Z,3.60
2019-03-18T02:53:48.376Z,3.50
2019-03-18T02:54:48.429Z,3.40
2019-03-18T02:55:48.419Z,3.50
2019-03-18T02:56:48.407Z,3.50
2019-03-18T02:57:48.429Z,3.60
2019-03-18T02:58:48.436Z,3.40
2019-03-18T02:59:48.451Z,3.60
2019-03-18T03:00:48.455Z,3.40
2019-03-18T03:01:48.465Z,3.20
2019-03-18T03:02:48.477Z,4.00
2019-03-18T03:03:48.489Z,3.40
2019-03-18T03:04:48.503Z,3.70
2019-03-18T03:05:48.521Z,3.50
2019-03-18T03:06:48.525Z,3.70
2019-03-18T03:07:48.544Z,3.50
2019-03-18T03:08:48.551Z,3.20
2019-03-18T03:09:48.558Z,3.30
2019-03-18T03:10:48.599Z,3.20
2019-03-18T03:11:48.613Z,3.70
2019-03-18T03:12:48.596Z,3.40
2019-03-18T03:13:48.605Z,3.80
2019-03-18T03:14:48.616Z,3.80
2019-03-18T03:15:48.646Z,3.70
2019-03-18T03:16:48.643Z,3.20
2019-03-18T03:17:48.654Z,3.70
2019-03-18T03:18:48.663Z,3.50
2019-03-18T03:19:48.676Z,3.50
2019-03-18T03:20:48.689Z,3.40
2019-03-18T03:21:48.703Z,3.60
2019-03-18T03:22:48.713Z,3.60
2019-03-18T03:23:48.730Z,3.60
2019-03-18T03:24:48.736Z,3.00
2019-03-18T03:25:48.748Z,3.20
2019-03-18T03:26:48.757Z,3.10
2019-03-18T03:27:48.770Z,3.20
2019-03-18T03:28:48.780Z,3.40
2019-03-18T03:29:48.794Z,3.00
2019-03-18T03:30:48.803Z,3.30
2019-03-18T03:31:48.821Z,3.30
2019-03-18T03:32:48.829Z,3.30
2019-03-18T03:33:48.851Z,3.30
2019-03-18T03:34:48.852Z,3.30
2019-03-18T03:35:48.862Z,3.70
2019-03-18T03:36:48.876Z,3.30
2019-03-18T03:37:48.991Z,3.10
2019-03-18T03:38:48.899Z,3.50
2019-03-18T03:39:48.909Z,3.30
2019-03-18T03:40:48.921Z,3.40
2019-03-18T03:41:48.941Z,3.30
2019-03-18T03:42:48.963Z,3.60
2019-03-18T03:43:48.971Z,3.20
2019-03-18T03:44:49.035Z,4.10
2019-03-18T03:45:49.035Z,4.10
2019-03-18T03:46:49.033Z,3.50
2019-03-18T03:47:49.032Z,3.30
2019-03-18T03:48:49.099Z,3.30
2019-03-18T03:49:49.079Z,3.30
2019-03-18T03:50:49.106Z,3.80
2019-03-18T03:51:49.100Z,3.40
2019-03-18T03:52:49.095Z,3.10
2019-03-18T03:53:49.093Z,2.80
2019-03-18T03:54:49.093Z,3.30
2019-03-18T03:55:49.095Z,3.30
2019-03-18T03:56:49.110Z,3.50
2019-03-18T03:57:49.222Z,3.20
2019-03-18T03:58:49.129Z,3.20
2019-03-18T03:59:49.141Z,3.20
2019-03-18T04:00:49.155Z,3.20
2019-03-18T04:01:49.181Z,3.20
2019-03-18T04:02:49.179Z,3.00
2019-03-18T04:03:49.189Z,3.30
2019-03-18T04:04:49.202Z,3.00
2019-03-18T04:05:49.213Z,3.10
2019-03-18T04:06:49.223Z,3.10
2019-03-18T04:07:49.243Z,3.20
2019-03-18T04:08:49.250Z,3.10
2019-03-18T04:09:49.260Z,3.30
2019-03-18T04:10:49.270Z,3.10
2019-03-18T04:11:49.285Z,3.20
2019-03-18T04:12:49.297Z,3.10
2019-03-18T04:13:49.309Z,3.20
2019-03-18T04:14:49.317Z,3.10
2019-03-18T04:15:49.329Z,3.10
2019-03-18T04:17:00.620Z,3.00
2019-03-18T04:17:49.491Z,3.20
2019-03-18T04:18:49.365Z,3.50
2019-03-18T04:19:49.378Z,3.00
2019-03-18T04:20:49.390Z,2.90
2019-03-18T04:21:50.993Z,3.20
2019-03-18T04:22:49.412Z,3.10
2019-03-18T04:23:49.423Z,3.20
2019-03-18T04:24:49.436Z,3.20
2019-03-18T04:25:49.447Z,3.40
2019-03-18T04:26:49.461Z,3.20
2019-03-18T04:27:49.507Z,3.60
2019-03-18T04:28:49.484Z,3.30
2019-03-18T04:29:49.494Z,2.80
2019-03-18T04:30:49.506Z,3.50
2019-03-18T04:31:49.524Z,3.30
2019-03-18T04:32:49.528Z,3.00
2019-03-18T04:33:49.542Z,2.80
2019-03-18T04:34:49.553Z,3.20
2019-03-18T04:35:49.564Z,3.10
2019-03-18T04:36:49.575Z,3.00
2019-03-18T04:37:49.589Z,3.20
2019-03-18T04:38:49.602Z,2.90
2019-03-18T04:39:49.615Z,3.20
2019-03-18T04:40:49.624Z,3.10
2019-03-18T04:41:49.640Z,3.00
2019-03-18T04:42:49.649Z,2.90
2019-03-18T04:43:49.660Z,3.00
2019-03-18T04:44:49.671Z,3.20
2019-03-18T04:45:49.684Z,3.10
2019-03-18T04:46:49.695Z,3.50
2019-03-18T04:47:49.709Z,3.20
2019-03-18T04:48:49.719Z,3.00
2019-03-18T04:49:49.730Z,2.70
2019-03-18T04:50:49.741Z,2.90
2019-03-18T04:51:49.754Z,3.10
2019-03-18T04:52:49.764Z,3.00
2019-03-18T04:53:49.776Z,3.30
2019-03-18T04:54:49.791Z,3.10
2019-03-18T04:55:49.805Z,3.20
2019-03-18T04:56:49.815Z,3.20
2019-03-18T04:57:49.824Z,3.10
2019-03-18T04:58:49.838Z,3.10
2019-03-18T04:59:49.851Z,3.20
2019-03-18T05:00:49.872Z,3.00
2019-03-18T05:01:49.875Z,2.80
2019-03-18T05:02:49.888Z,3.30
2019-03-18T05:03:49.900Z,3.50
2019-03-18T05:04:49.920Z,4.00
2019-03-18T05:05:49.924Z,3.50
2019-03-18T05:06:49.941Z,3.10
2019-03-18T05:07:49.949Z,3.40
2019-03-18T05:08:49.960Z,2.90
2019-03-18T05:09:49.975Z,3.30
2019-03-18T05:10:49.985Z,3.10
2019-03-18T05:11:49.999Z,3.20
2019-03-18T05:12:50.009Z,3.40
2019-03-18T05:13:50.066Z,3.00
2019-03-18T05:14:50.038Z,3.00
2019-03-18T05:15:50.049Z,3.20
2019-03-18T05:16:50.064Z,2.90
2019-03-18T05:17:50.080Z,3.30
2019-03-18T05:18:50.088Z,2.80
2019-03-18T05:19:50.102Z,3.40
2019-03-18T05:20:50.112Z,3.00
2019-03-18T05:21:50.130Z,3.10
2019-03-18T05:22:50.138Z,3.10
2019-03-18T05:23:50.152Z,3.10
2019-03-18T05:24:50.162Z,2.80
2019-03-18T05:25:50.176Z,3.00
2019-03-18T05:26:50.187Z,2.90
2019-03-18T05:27:50.203Z,2.90
2019-03-18T05:28:50.214Z,3.10
2019-03-18T05:29:50.226Z,3.00
2019-03-18T05:30:50.238Z,2.80
2019-03-18T05:31:50.252Z,2.70
2019-03-18T05:32:50.265Z,3.00
2019-03-18T05:34:29.767Z,2.90
2019-03-18T05:34:50.303Z,2.90
2019-03-18T05:35:50.301Z,2.90
2019-03-18T05:36:50.344Z,2.70
2019-03-18T05:37:50.325Z,2.70
2019-03-18T05:38:50.339Z,2.80
2019-03-18T05:39:50.357Z,2.80
2019-03-18T05:40:50.364Z,2.80
2019-03-18T05:41:50.375Z,2.60
2019-03-18T05:42:50.387Z,2.70
2019-03-18T05:43:50.403Z,2.90
2019-03-18T05:44:50.414Z,2.60
2019-03-18T05:45:50.427Z,2.80
2019-03-18T05:46:50.538Z,2.70
2019-03-18T05:47:50.452Z,2.80
2019-03-18T05:48:50.466Z,3.00
2019-03-18T05:49:50.477Z,2.70
2019-03-18T05:50:50.496Z,2.50
2019-03-18T05:51:50.502Z,2.70
2019-03-18T05:52:50.516Z,3.20
2019-03-18T05:53:50.530Z,2.80
2019-03-18T05:54:50.540Z,2.70
2019-03-18T05:55:50.555Z,2.70
2019-03-18T05:56:50.566Z,2.80
2019-03-18T05:57:50.578Z,2.90
2019-03-18T05:58:50.590Z,2.70
2019-03-18T05:59:50.605Z,2.70
2019-03-18T06:00:50.618Z,2.50
2019-03-18T06:01:50.629Z,2.70
2019-03-18T06:02:50.644Z,2.70
2019-03-18T06:03:50.656Z,3.20
2019-03-18T06:04:50.670Z,2.70
2019-03-18T06:05:50.681Z,2.80
2019-03-18T06:06:50.695Z,2.80
2019-03-18T06:07:50.709Z,2.90
2019-03-18T06:08:50.722Z,2.60
2019-03-18T06:09:50.735Z,2.90
2019-03-18T06:10:50.747Z,2.70
2019-03-18T06:11:50.769Z,2.50
2019-03-18T06:12:50.809Z,2.70
2019-03-18T06:13:50.858Z,2.90
2019-03-18T06:14:50.854Z,2.70
2019-03-18T06:15:50.851Z,2.80
2019-03-18T06:16:50.909Z,2.90
2019-03-18T06:17:52.645Z,2.80
2019-03-18T06:18:50.928Z,2.70
2019-03-18T06:19:50.910Z,2.50
2019-03-18T06:20:50.916Z,3.10
2019-03-18T06:21:50.911Z,3.00
2019-03-18T06:22:50.919Z,3.00
2019-03-18T06:23:50.920Z,3.10
2019-03-18T06:24:50.936Z,3.00
2019-03-18T06:25:50.949Z,3.10
2019-03-18T06:26:50.968Z,2.90
2019-03-18T06:27:50.977Z,2.70
2019-03-18T06:28:50.987Z,2.80
2019-03-18T06:29:51.001Z,2.90
2019-03-18T06:30:51.016Z,2.90
2019-03-18T06:31:51.026Z,2.90
2019-03-18T06:32:51.041Z,2.50
2019-03-18T06:33:51.055Z,2.90
2019-03-18T06:34:51.069Z,2.90
2019-03-18T06:35:51.086Z,2.80
2019-03-18T06:36:51.096Z,2.70
2019-03-18T06:37:51.108Z,2.80
2019-03-18T06:38:51.122Z,3.10
2019-03-18T06:39:51.138Z,3.50
2019-03-18T06:40:51.150Z,2.80
2019-03-18T06:41:51.163Z,3.00
2019-03-18T06:42:51.175Z,2.70
2019-03-18T06:43:51.190Z,2.50
2019-03-18T06:44:51.205Z,2.60
2019-03-18T06:45:51.218Z,2.90
2019-03-18T06:46:51.229Z,2.90
2019-03-18T06:48:03.661Z,2.90
2019-03-18T06:48:51.261Z,3.00
2019-03-18T06:49:51.270Z,2.70
2019-03-18T06:50:51.284Z,2.80
2019-03-18T06:51:51.299Z,2.80
2019-03-18T06:52:51.311Z,3.10
2019-03-18T06:53:51.325Z,3.10
2019-03-18T06:54:51.339Z,3.30
2019-03-18T06:55:51.353Z,3.30
2019-03-18T06:56:51.365Z,3.10
2019-03-18T06:57:51.380Z,3.20
2019-03-18T06:58:51.419Z,2.90
2019-03-18T06:59:51.408Z,3.20
2019-03-18T07:00:51.427Z,3.30
2019-03-18T07:01:51.433Z,3.30
2019-03-18T07:02:51.448Z,3.10
2019-03-18T07:03:51.462Z,3.30
2019-03-18T07:04:51.476Z,3.20
2019-03-18T07:05:51.488Z,3.30
2019-03-18T07:06:51.505Z,3.20
2019-03-18T07:07:51.517Z,3.20
2019-03-18T07:08:51.529Z,3.20
2019-03-18T07:09:51.543Z,3.20
2019-03-18T07:10:53.389Z,3.10
2019-03-18T07:11:51.573Z,3.10
2019-03-18T07:12:51.586Z,3.10
2019-03-18T07:13:51.601Z,2.80
2019-03-18T07:14:51.615Z,3.50
2019-03-18T07:15:51.632Z,3.30
2019-03-18T07:16:51.647Z,2.90
2019-03-18T07:17:51.657Z,2.90
2019-03-18T07:18:51.671Z,2.90
2019-03-18T07:19:51.687Z,3.30
2019-03-18T07:20:51.700Z,3.00
2019-03-18T07:21:51.714Z,3.00
2019-03-18T07:22:51.728Z,3.00
2019-03-18T07:23:51.742Z,2.90
2019-03-18T07:24:51.758Z,2.80
2019-03-18T07:25:51.772Z,2.90
2019-03-18T07:26:51.788Z,2.90
2019-03-18T07:27:51.800Z,2.70
2019-03-18T07:28:51.815Z,2.70
2019-03-18T07:29:51.846Z,2.80
2019-03-18T07:30:51.847Z,2.80
2019-03-18T07:31:51.860Z,2.90
2019-03-18T07:32:51.874Z,3.00
2019-03-18T07:33:51.894Z,3.00
2019-03-18T07:34:51.904Z,2.70
2019-03-18T07:35:51.921Z,2.50
2019-03-18T07:36:51.934Z,2.70
2019-03-18T07:37:51.947Z,2.90
2019-03-18T07:38:51.965Z,2.80
2019-03-18T07:39:51.980Z,2.80
2019-03-18T07:40:51.993Z,2.80
2019-03-18T07:41:52.013Z,2.50
2019-03-18T07:42:52.023Z,2.60
2019-03-18T07:43:52.044Z,2.70
2019-03-18T07:44:52.057Z,2.40
2019-03-18T07:45:52.065Z,2.90
2019-03-18T07:46:52.080Z,2.90
2019-03-18T07:47:52.098Z,2.40
2019-03-18T07:48:52.113Z,2.50
2019-03-18T07:49:52.128Z,2.30
2019-03-18T07:50:52.146Z,2.90
2019-03-18T07:51:52.161Z,2.50
2019-03-18T07:52:52.175Z,2.50
2019-03-18T07:53:52.188Z,2.60
2019-03-18T07:54:52.206Z,2.50
2019-03-18T07:55:52.220Z,2.60
2019-03-18T07:56:52.237Z,2.80
2019-03-18T07:57:52.253Z,2.10
2019-03-18T07:58:52.266Z,2.30
2019-03-18T07:59:52.282Z,2.40
2019-03-18T08:00:52.399Z,2.70
2019-03-18T08:01:52.316Z,2.70
2019-03-18T08:02:52.328Z,2.30
2019-03-18T08:03:52.350Z,2.70
2019-03-18T08:04:52.360Z,2.70
2019-03-18T08:05:52.375Z,2.20
2019-03-18T08:06:52.391Z,2.40
2019-03-18T08:07:52.405Z,2.50
2019-03-18T08:08:53.491Z,2.30
2019-03-18T08:09:52.435Z,2.60
2019-03-18T08:10:52.456Z,2.20
2019-03-18T08:11:52.472Z,2.40
2019-03-18T08:12:52.483Z,2.50
2019-03-18T08:13:52.497Z,2.70
2019-03-18T08:14:52.515Z,2.50
2019-03-18T08:15:52.531Z,2.40
2019-03-18T08:16:52.545Z,2.50
2019-03-18T08:17:52.560Z,2.40
2019-03-18T08:18:52.575Z,2.30
2019-03-18T08:19:52.590Z,2.30
2019-03-18T08:20:52.616Z,2.40
2019-03-18T08:21:52.696Z,2.10
2019-03-18T08:22:52.697Z,2.30
2019-03-18T08:23:52.697Z,2.10
2019-03-18T08:24:52.776Z,2.30
2019-03-18T08:25:52.754Z,2.10
2019-03-18T08:26:52.762Z,2.10
2019-03-18T08:27:52.768Z,2.00
2019-03-18T08:28:52.755Z,2.20
2019-03-18T08:29:52.770Z,2.30
2019-03-18T08:30:52.763Z,2.10
2019-03-18T08:31:52.779Z,2.30
2019-03-18T08:32:52.794Z,2.20
2019-03-18T08:33:52.812Z,2.10
2019-03-18T08:34:52.828Z,2.20
2019-03-18T08:35:52.842Z,2.30
2019-03-18T08:36:52.857Z,2.20
2019-03-18T08:37:54.742Z,2.20
2019-03-18T08:38:52.898Z,2.00
2019-03-18T08:39:52.905Z,2.30
2019-03-18T08:40:52.921Z,2.40
2019-03-18T08:41:52.937Z,2.40
2019-03-18T08:42:52.953Z,2.30
2019-03-18T08:43:52.970Z,2.20
2019-03-18T08:44:52.986Z,2.20
2019-03-18T08:45:53.001Z,2.10
2019-03-18T08:46:53.017Z,2.00
2019-03-18T08:47:53.035Z,2.10
2019-03-18T08:48:55.980Z,1.90
2019-03-18T08:49:53.068Z,2.20
2019-03-18T08:50:53.084Z,2.00
2019-03-18T08:51:53.099Z,2.50
2019-03-18T08:52:53.114Z,2.10
2019-03-18T08:53:53.129Z,2.30
2019-03-18T08:54:53.147Z,2.40
2019-03-18T08:55:53.163Z,2.10
2019-03-18T08:56:53.178Z,2.40
2019-03-18T08:57:53.194Z,2.40
2019-03-18T08:58:53.270Z,2.20
2019-03-18T08:59:53.227Z,2.30
2019-03-18T09:00:53.244Z,2.30
2019-03-18T09:01:53.260Z,2.00
2019-03-18T09:02:56.201Z,2.10
2019-03-18T09:03:53.292Z,2.20
2019-03-18T09:04:53.317Z,2.30
2019-03-18T09:05:53.325Z,1.80
2019-03-18T09:06:53.343Z,1.90
2019-03-18T09:07:53.357Z,2.30
2019-03-18T09:08:53.373Z,2.10
2019-03-18T09:09:53.390Z,2.60
2019-03-18T09:10:53.409Z,2.10
2019-03-18T09:11:53.424Z,2.00
2019-03-18T09:12:53.439Z,2.00
2019-03-18T09:13:53.456Z,2.40
2019-03-18T09:14:53.469Z,2.20
2019-03-18T09:15:53.487Z,2.60
2019-03-18T09:16:53.502Z,2.50
2019-03-18T09:17:53.517Z,1.80
2019-03-18T09:18:53.543Z,2.20
2019-03-18T09:19:53.553Z,2.10
2019-03-18T09:20:53.566Z,2.10
2019-03-18T09:21:53.582Z,1.90
2019-03-18T09:22:53.597Z,1.80
2019-03-18T09:23:53.619Z,2.00
2019-03-18T09:24:53.639Z,1.90
2019-03-18T09:25:53.649Z,2.10
2019-03-18T09:27:02.265Z,2.00
2019-03-18T09:27:53.682Z,2.00
2019-03-18T09:28:53.697Z,2.00
2019-03-18T09:29:53.717Z,1.80
2019-03-18T09:30:53.731Z,1.90
2019-03-18T09:31:53.755Z,2.00
2019-03-18T09:32:53.764Z,2.10
2019-03-18T09:33:53.781Z,2.30
2019-03-18T09:34:54.791Z,2.30
2019-03-18T09:35:53.815Z,2.20
2019-03-18T09:36:53.841Z,2.20
2019-03-18T09:37:53.850Z,2.10
2019-03-18T09:38:53.869Z,2.10
2019-03-18T09:39:53.887Z,2.10
2019-03-18T09:40:53.900Z,2.00
2019-03-18T09:41:53.918Z,1.90
2019-03-18T09:42:53.950Z,2.50
2019-03-18T09:43:53.956Z,2.00
2019-03-18T09:44:53.968Z,2.00
2019-03-18T09:45:54.615Z,2.20
2019-03-18T09:46:54.003Z,2.00
2019-03-18T09:47:56.134Z,1.90
2019-03-18T09:48:54.038Z,2.00
2019-03-18T09:49:54.054Z,2.10
2019-03-18T09:50:54.074Z,2.70
2019-03-18T09:51:54.092Z,2.30
2019-03-18T09:52:54.110Z,2.10
2019-03-18T09:53:54.125Z,2.80
2019-03-18T09:54:54.142Z,2.20
2019-03-18T09:55:54.160Z,2.90
2019-03-18T09:56:54.181Z,2.30
2019-03-18T09:57:54.195Z,2.70
2019-03-18T09:58:54.212Z,2.40
2019-03-18T09:59:54.229Z,2.90
2019-03-18T10:00:55.448Z,2.00
2019-03-18T10:01:54.262Z,2.30
2019-03-18T10:02:54.280Z,1.90
2019-03-18T10:03:54.296Z,2.10
2019-03-18T10:04:54.320Z,2.00
2019-03-18T10:05:54.331Z,2.00
2019-03-18T10:06:54.349Z,1.90
2019-03-18T10:07:54.368Z,2.10
2019-03-18T10:08:54.386Z,2.30
2019-03-18T10:09:54.403Z,2.00
2019-03-18T10:10:54.419Z,1.70
2019-03-18T10:11:54.437Z,2.10
2019-03-18T10:12:54.451Z,2.00
2019-03-18T10:13:54.477Z,2.00
2019-03-18T10:14:54.556Z,2.00
2019-03-18T10:15:54.558Z,2.30
2019-03-18T10:16:54.569Z,2.10
2019-03-18T10:17:54.616Z,2.00
2019-03-18T10:18:54.619Z,1.80
2019-03-18T10:19:54.614Z,1.90
2019-03-18T10:20:54.611Z,2.30
2019-03-18T10:21:54.616Z,2.40
2019-03-18T10:22:54.644Z,2.20
2019-03-18T10:23:54.638Z,1.70
2019-03-18T10:24:54.652Z,2.00
2019-03-18T10:25:54.719Z,2.20
2019-03-18T10:26:54.685Z,2.70
2019-03-18T10:27:54.701Z,2.40
2019-03-18T10:28:54.718Z,2.40
2019-03-18T10:29:54.736Z,2.30
2019-03-18T10:30:54.751Z,1.90
2019-03-18T10:31:54.771Z,1.80
2019-03-18T10:32:54.785Z,2.10
2019-03-18T10:33:54.802Z,2.10
2019-03-18T10:34:54.819Z,2.00
2019-03-18T10:35:54.836Z,1.90
2019-03-18T10:36:54.855Z,1.90
2019-03-18T10:37:54.871Z,2.20
2019-03-18T10:38:54.887Z,1.80
2019-03-18T10:39:54.907Z,1.80
2019-03-18T10:40:54.923Z,2.10
2019-03-18T10:41:54.943Z,2.20
2019-03-18T10:42:54.957Z,1.90
2019-03-18T10:43:54.977Z,2.20
2019-03-18T10:44:54.995Z,2.00
2019-03-18T10:45:55.010Z,2.20
2019-03-18T10:46:55.030Z,2.00
2019-03-18T10:47:55.155Z,2.10
2019-03-18T10:48:55.070Z,2.00
2019-03-18T10:49:55.084Z,2.00
2019-03-18T10:50:55.103Z,1.80
2019-03-18T10:51:55.133Z,2.20
2019-03-18T10:52:55.177Z,1.80
2019-03-18T10:53:55.161Z,2.20
2019-03-18T10:54:55.197Z,2.40
2019-03-18T10:56:06.921Z,2.00
2019-03-18T10:56:55.210Z,2.00
2019-03-18T10:57:55.226Z,2.10
2019-03-18T10:58:55.251Z,2.20
2019-03-18T10:59:55.281Z,2.30
2019-03-18T11:00:55.283Z,2.10
2019-03-18T11:01:55.300Z,2.00
2019-03-18T11:02:55.317Z,2.30
2019-03-18T11:03:55.337Z,2.50
2019-03-18T11:04:55.355Z,2.40
2019-03-18T11:05:55.371Z,2.80
2019-03-18T11:06:55.390Z,2.40
2019-03-18T11:07:55.405Z,1.90
2019-03-18T11:08:55.427Z,2.50
2019-03-18T11:09:55.443Z,2.80
2019-03-18T11:10:55.464Z,1.90
2019-03-18T11:11:55.480Z,2.20
2019-03-18T11:12:55.499Z,1.80
2019-03-18T11:13:55.513Z,2.20
2019-03-18T11:14:55.533Z,2.50
2019-03-18T11:15:55.553Z,2.40
2019-03-18T11:16:55.571Z,1.80
2019-03-18T11:17:55.588Z,1.70
2019-03-18T11:18:55.608Z,2.10
2019-03-18T11:19:58.862Z,2.00
2019-03-18T11:20:55.645Z,2.40
2019-03-18T11:21:55.660Z,1.80
2019-03-18T11:22:55.679Z,2.50
2019-03-18T11:23:55.696Z,2.00
2019-03-18T11:24:55.715Z,1.80
2019-03-18T11:25:55.730Z,2.20
2019-03-18T11:26:55.750Z,1.90
2019-03-18T11:27:55.767Z,2.00
2019-03-18T11:28:55.788Z,2.40
2019-03-18T11:29:55.803Z,2.30
2019-03-18T11:30:55.820Z,2.20
2019-03-18T11:31:55.839Z,2.30
2019-03-18T11:32:55.861Z,2.00
2019-03-18T11:33:55.875Z,2.20
2019-03-18T11:34:55.892Z,2.60
2019-03-18T11:35:55.917Z,2.20
2019-03-18T11:36:55.927Z,2.00
2019-03-18T11:37:55.948Z,2.40
2019-03-18T11:38:55.961Z,2.20
2019-03-18T11:39:55.981Z,2.20
2019-03-18T11:40:55.999Z,2.20
2019-03-18T11:41:56.024Z,2.50
2019-03-18T11:42:56.032Z,1.90
2019-03-18T11:43:56.059Z,2.10
2019-03-18T11:44:56.066Z,2.10
2019-03-18T11:45:56.085Z,2.40
2019-03-18T11:46:56.100Z,2.00
2019-03-18T11:47:56.119Z,2.20
2019-03-18T11:48:56.135Z,2.00
2019-03-18T11:49:56.152Z,2.00
2019-03-18T11:50:56.170Z,2.40
2019-03-18T11:51:56.190Z,2.20
2019-03-18T11:52:56.206Z,2.10
2019-03-18T11:53:56.229Z,2.00
2019-03-18T11:54:56.240Z,1.80
2019-03-18T11:55:56.258Z,2.20
2019-03-18T11:56:56.274Z,2.50
2019-03-18T11:57:56.290Z,2.10
2019-03-18T11:58:56.307Z,1.90
2019-03-18T11:59:56.324Z,1.80
2019-03-18T12:00:56.428Z,2.00
2019-03-18T12:01:56.427Z,1.70
2019-03-18T12:02:56.422Z,2.10
2019-03-18T12:03:56.425Z,1.90
2019-03-18T12:04:57.680Z,1.70
2019-03-18T12:05:56.484Z,1.80
2019-03-18T12:06:56.490Z,2.30
2019-03-18T12:07:56.486Z,1.90
2019-03-18T12:08:56.479Z,2.30
2019-03-18T12:09:56.521Z,2.00
2019-03-18T12:10:56.521Z,2.10
2019-03-18T12:11:56.530Z,2.00
2019-03-18T12:12:56.558Z,2.30
2019-03-18T12:13:56.569Z,2.10
2019-03-18T12:14:56.584Z,1.80
2019-03-18T12:15:56.599Z,2.30
2019-03-18T12:16:56.619Z,2.20
2019-03-18T12:17:56.635Z,2.50
2019-03-18T12:18:56.652Z,2.00
2019-03-18T12:19:56.670Z,1.90
2019-03-18T12:20:56.689Z,2.00
2019-03-18T12:21:56.705Z,2.10
2019-03-18T12:22:56.726Z,2.50
2019-03-18T12:23:56.740Z,2.40
2019-03-18T12:24:56.759Z,1.90
2019-03-18T12:25:56.778Z,2.00
2019-03-18T12:26:56.796Z,1.90
2019-03-18T12:27:56.827Z,2.60
2019-03-18T12:28:56.829Z,2.10
2019-03-18T12:29:56.850Z,2.30
2019-03-18T12:30:56.865Z,1.90
2019-03-18T12:31:56.880Z,1.90
2019-03-18T12:32:56.970Z,1.70
2019-03-18T12:33:57.558Z,1.50
2019-03-18T12:34:56.934Z,1.60
2019-03-18T12:35:56.951Z,1.90
2019-03-18T12:36:56.970Z,2.20
2019-03-18T12:37:56.990Z,2.70
2019-03-18T12:38:57.006Z,2.40
2019-03-18T12:39:57.024Z,1.60
2019-03-18T12:40:57.041Z,1.90
2019-03-18T12:41:57.058Z,2.50
2019-03-18T12:42:57.080Z,2.70
2019-03-18T12:43:57.101Z,2.10
2019-03-18T12:44:57.117Z,1.70
2019-03-18T12:45:57.135Z,2.50
2019-03-18T12:46:57.154Z,2.10
2019-03-18T12:47:57.173Z,2.00
2019-03-18T12:48:57.193Z,2.50
2019-03-18T12:49:57.210Z,2.20
2019-03-18T12:50:57.229Z,2.10
2019-03-18T12:51:57.249Z,2.20
2019-03-18T12:52:57.266Z,1.90
2019-03-18T12:53:57.285Z,2.00
2019-03-18T12:54:57.309Z,2.40
2019-03-18T12:55:57.323Z,1.80
2019-03-18T12:56:57.341Z,2.00
2019-03-18T12:57:57.359Z,2.20
2019-03-18T12:58:57.379Z,2.80
2019-03-18T12:59:57.399Z,2.00
2019-03-18T13:00:57.416Z,2.10
2019-03-18T13:01:57.431Z,2.10
2019-03-18T13:02:57.452Z,2.00
2019-03-18T13:03:57.471Z,2.00
2019-03-18T13:04:57.490Z,2.30
2019-03-18T13:05:57.506Z,2.00
2019-03-18T13:06:57.526Z,2.00
2019-03-18T13:07:57.541Z,2.10
2019-03-18T13:08:57.563Z,1.70
2019-03-18T13:09:57.579Z,2.00
2019-03-18T13:10:57.593Z,2.00
2019-03-18T13:11:57.623Z,2.00
2019-03-18T13:12:57.628Z,2.20
2019-03-18T13:13:57.653Z,2.20
2019-03-18T13:14:57.666Z,1.60
2019-03-18T13:15:57.681Z,1.60
2019-03-18T13:16:57.697Z,2.00
2019-03-18T13:17:57.713Z,2.00
2019-03-18T13:18:57.731Z,2.00